Time;durP1;ratioP1;P1;durP2;ratioP2;P2;SDS_P1;SDS_P2;PMS_P1;PMS_P2;Temp;Humidity;BMP_temperature;BMP_pressure;BME280_temperature;BME280_humidity;BME280_pressure;Samples;Min_cycle;Max_cycle;Signal;HPM_P1;HPM_P2
2023/06/12 00:00:52;;;;;;;3.42;2.15;;;19.30;99.90;;;;;;12424560;28;20060;-38
2023/06/12 00:06:56;;;;;;;4.53;2.70;;;19.30;99.90;;;;;;12427061;28;20054;-38
2023/06/12 00:12:57;;;;;;;5.63;2.60;;;19.10;99.90;;;;;;12420934;28;20058;-39
2023/06/12 00:19:00;;;;;;;4.28;2.75;;;18.80;99.90;;;;;;12434955;28;20096;-38
2023/06/12 00:25:03;;;;;;;4.55;2.70;;;18.50;99.90;;;;;;12413565;28;20053;-38
2023/06/12 00:31:05;;;;;;;6.80;2.58;;;18.60;99.90;;;;;;12418816;28;20050;-38
2023/06/12 00:37:07;;;;;;;5.93;2.53;;;18.70;99.90;;;;;;12423611;28;20056;-39
2023/06/12 00:43:09;;;;;;;4.38;2.60;;;18.80;99.90;;;;;;12416753;28;20038;-37
2023/06/12 00:49:11;;;;;;;7.80;3.05;;;18.60;99.90;;;;;;12426869;28;21562;-38
2023/06/12 00:55:14;;;;;;;6.22;3.20;;;18.40;99.90;;;;;;12420120;28;20427;-37
2023/06/12 01:01:20;;;;;;;5.57;2.87;;;18.40;99.90;;;;;;12412714;28;20140;-39
2023/06/12 01:07:38;;;;;;;5.32;2.92;;;17.80;99.90;;;;;;12419680;28;20124;-38
2023/06/12 01:13:40;;;;;;;6.07;3.00;;;17.80;99.90;;;;;;12428769;28;20049;-38
2023/06/12 01:19:42;;;;;;;5.60;2.83;;;18.20;99.90;;;;;;12428204;28;20041;-38
2023/06/12 01:26:17;;;;;;;5.18;2.92;;;18.30;99.90;;;;;;12422056;28;20505;-38
2023/06/12 01:32:20;;;;;;;9.43;3.33;;;18.30;99.90;;;;;;12432373;28;20144;-38
2023/06/12 01:38:24;;;;;;;5.87;2.87;;;18.30;99.90;;;;;;12428826;28;20077;-40
2023/06/12 01:44:26;;;;;;;7.38;3.20;;;18.10;99.90;;;;;;12435552;28;20049;-38
2023/06/12 01:50:28;;;;;;;9.23;4.00;;;17.90;99.90;;;;;;12427150;28;20069;-38
2023/06/12 01:56:30;;;;;;;6.00;2.92;;;17.60;99.90;;;;;;12423705;28;20422;-37
2023/06/12 02:02:34;;;;;;;4.32;2.95;;;17.80;99.90;;;;;;12426651;28;20052;-38
2023/06/12 02:08:36;;;;;;;6.20;2.90;;;17.90;99.90;;;;;;12428763;28;20079;-37
2023/06/12 02:14:41;;;;;;;4.75;3.00;;;18.00;99.90;;;;;;12425247;28;20045;-38
2023/06/12 02:20:43;;;;;;;5.07;2.65;;;17.80;99.90;;;;;;12434271;28;20061;-37
2023/06/12 02:26:45;;;;;;;6.43;3.20;;;17.60;99.90;;;;;;12431010;28;20062;-38
2023/06/12 02:32:49;;;;;;;4.45;2.72;;;17.50;99.90;;;;;;12431793;28;20065;-37
2023/06/12 02:38:51;;;;;;;;;;;17.50;99.90;;;;;;12425851;28;20046;-38
2023/06/12 02:44:53;;;;;;;4.90;2.80;;;17.50;99.90;;;;;;12427699;28;20292;-37
2023/06/12 02:50:55;;;;;;;4.25;2.65;;;17.40;99.90;;;;;;12428694;28;20045;-37
2023/06/12 02:56:57;;;;;;;4.70;2.92;;;17.30;99.90;;;;;;12432697;28;20049;-37
2023/06/12 03:02:59;;;;;;;5.60;2.33;;;17.20;99.90;;;;;;12423129;28;20525;-38
2023/06/12 03:09:03;;;;;;;6.78;2.63;;;17.10;99.90;;;;;;12432451;28;20505;-38
2023/06/12 03:15:05;;;;;;;;;;;17.10;99.90;;;;;;12424822;28;20046;-38
2023/06/12 03:21:07;;;;;;;6.97;2.83;;;17.20;99.90;;;;;;12424595;28;19922;-38
2023/06/12 03:27:10;;;;;;;4.40;2.70;;;17.30;99.90;;;;;;12428887;28;20125;-38
2023/06/12 03:33:12;;;;;;;7.00;3.30;;;17.30;99.90;;;;;;12431360;28;20042;-38
2023/06/12 03:39:14;;;;;;;3.83;2.75;;;17.30;99.90;;;;;;12431838;28;20505;-38
2023/06/12 03:45:16;;;;;;;6.70;3.30;;;17.10;99.90;;;;;;12442793;28;20060;-37
2023/06/12 03:51:18;;;;;;;5.43;3.00;;;17.10;99.90;;;;;;12422531;28;20042;-38
2023/06/12 03:57:20;;;;;;;6.85;2.85;;;17.00;99.90;;;;;;12428351;28;20080;-38
2023/06/12 04:03:24;;;;;;;5.63;2.60;;;17.00;99.90;;;;;;12424375;28;21508;-38
2023/06/12 04:09:26;;;;;;;4.40;2.90;;;17.00;99.90;;;;;;12431915;28;20050;-38
2023/06/12 04:15:29;;;;;;;4.00;2.83;;;17.30;99.90;;;;;;12425451;28;20058;-38
2023/06/12 04:21:33;;;;;;;4.47;2.90;;;17.90;99.90;;;;;;12418348;28;20078;-38
2023/06/12 04:27:35;;;;;;;4.70;2.90;;;17.90;99.90;;;;;;12415083;28;20050;-38
2023/06/12 04:33:37;;;;;;;5.30;3.20;;;18.50;99.90;;;;;;12426545;28;20049;-38
2023/06/12 04:39:40;;;;;;;5.70;2.92;;;19.20;99.90;;;;;;12417076;28;20042;-38
2023/06/12 04:45:44;;;;;;;6.88;3.30;;;19.40;99.90;;;;;;12406995;28;20384;-39
2023/06/12 04:51:48;;;;;;;4.93;3.20;;;19.00;99.90;;;;;;12410142;28;20141;-38
2023/06/12 04:57:53;;;;;;;6.45;3.70;;;18.60;99.90;;;;;;12406077;28;20046;-39
2023/06/12 05:03:55;;;;;;;4.10;2.90;;;18.20;99.90;;;;;;12398278;28;20054;-38
2023/06/12 05:09:57;;;;;;;4.85;2.92;;;18.00;99.90;;;;;;12401037;28;20050;-38
2023/06/12 05:15:59;;;;;;;5.20;3.40;;;17.90;99.90;;;;;;12394683;28;20045;-38
2023/06/12 05:22:01;;;;;;;7.72;3.38;;;17.80;99.90;;;;;;12405627;28;20054;-38
2023/06/12 05:28:03;;;;;;;8.23;3.83;;;17.80;99.90;;;;;;12413003;28;20062;-38
2023/06/12 05:34:05;;;;;;;5.32;3.55;;;17.80;99.90;;;;;;12399796;28;20154;-38
2023/06/12 05:40:09;;;;;;;5.72;3.72;;;18.00;99.90;;;;;;12416147;28;20133;-39
2023/06/12 05:46:11;;;;;;;;;;;17.80;99.90;;;;;;12367421;28;20042;-38
2023/06/12 05:52:15;;;;;;;5.78;2.97;;;17.80;99.90;;;;;;12405318;28;19928;-39
2023/06/12 05:58:17;;;;;;;5.00;3.58;;;18.20;99.90;;;;;;12404210;28;20050;-39
2023/06/12 06:04:19;;;;;;;6.88;3.50;;;18.40;99.90;;;;;;12409105;28;20124;-39
2023/06/12 06:10:21;;;;;;;7.13;3.40;;;18.40;99.90;;;;;;12409437;28;20050;-38
2023/06/12 06:16:23;;;;;;;4.85;3.40;;;18.50;99.90;;;;;;12390115;28;20081;-38
2023/06/12 06:22:34;;;;;;;7.20;3.60;;;18.60;99.90;;;;;;12415815;28;20133;-38
2023/06/12 06:28:36;;;;;;;7.35;3.40;;;18.70;99.90;;;;;;12399926;28;20476;-39
2023/06/12 06:34:38;;;;;;;4.80;3.08;;;19.10;99.90;;;;;;12416210;28;20052;-39
2023/06/12 06:40:40;;;;;;;5.40;2.78;;;19.60;99.90;;;;;;12414270;28;20414;-38
2023/06/12 06:46:42;;;;;;;7.10;3.30;;;19.80;99.90;;;;;;12405629;28;20080;-39
2023/06/12 06:52:44;;;;;;;4.53;2.85;;;20.00;99.90;;;;;;12416874;28;20091;-39
2023/06/12 06:58:46;;;;;;;4.03;2.60;;;20.30;99.90;;;;;;12401542;28;20089;-38
2023/06/12 07:04:48;;;;;;;6.15;2.90;;;20.60;99.90;;;;;;12392945;28;20112;-38
2023/06/12 07:10:50;;;;;;;6.13;3.10;;;21.10;99.90;;;;;;12408363;28;20612;-39
2023/06/12 07:16:52;;;;;;;10.73;3.97;;;21.20;99.90;;;;;;12397049;28;20090;-39
2023/06/12 07:22:54;;;;;;;7.10;4.65;;;21.30;99.90;;;;;;12389602;28;20057;-39
2023/06/12 07:28:56;;;;;;;6.50;4.57;;;21.60;99.90;;;;;;12371963;28;20065;-39
2023/06/12 07:35:01;;;;;;;8.70;4.90;;;21.90;99.90;;;;;;12420079;28;20100;-39
2023/06/12 07:41:03;;;;;;;10.32;4.60;;;22.30;99.90;;;;;;12411819;28;20049;-39
2023/06/12 07:47:05;;;;;;;6.20;4.50;;;22.60;99.90;;;;;;12392389;28;20641;-39
2023/06/12 07:53:08;;;;;;;10.32;4.50;;;22.70;99.90;;;;;;12403979;28;20042;-40
2023/06/12 07:59:24;;;;;;;7.35;4.45;;;22.80;99.90;;;;;;12409863;28;20058;-40
2023/06/12 08:05:26;;;;;;;6.53;4.22;;;22.90;99.90;;;;;;12394116;28;20133;-39
2023/06/12 08:11:28;;;;;;;6.47;4.68;;;23.10;99.90;;;;;;12394133;28;20050;-40
2023/06/12 08:17:30;;;;;;;10.68;4.82;;;23.10;99.90;;;;;;12385392;28;20057;-39
2023/06/12 08:23:33;;;;;;;8.73;4.90;;;23.30;99.90;;;;;;12387294;28;20119;-39
2023/06/12 08:29:37;;;;;;;9.17;5.03;;;23.50;99.90;;;;;;12406197;28;20046;-39
2023/06/12 08:35:39;;;;;;;7.07;5.05;;;23.60;99.90;;;;;;12394577;28;20050;-39
2023/06/12 08:41:55;;;;;;;7.25;4.47;;;23.90;99.90;;;;;;12411373;28;20518;-39
2023/06/12 08:47:57;;;;;;;9.13;5.05;;;24.10;99.90;;;;;;12398726;28;20058;-39
2023/06/12 08:54:01;;;;;;;5.60;4.53;;;24.20;99.90;;;;;;12398997;28;20050;-39
2023/06/12 09:00:10;;;;;;;7.93;4.70;;;24.20;99.90;;;;;;12395487;28;20072;-39
2023/06/12 09:06:18;;;;;;;5.32;4.32;;;24.40;99.90;;;;;;12398207;28;20129;-39
2023/06/12 09:12:20;;;;;;;6.25;4.60;;;24.60;99.90;;;;;;12395030;28;20050;-39
2023/06/12 09:18:22;;;;;;;7.32;4.15;;;24.40;99.90;;;;;;12373701;28;20085;-40
2023/06/12 09:24:25;;;;;;;7.53;4.43;;;24.70;99.90;;;;;;12401904;28;20050;-39
2023/06/12 09:30:27;;;;;;;5.37;4.27;;;24.90;99.90;;;;;;12427518;28;20058;-40
2023/06/12 09:36:31;;;;;;;6.93;4.30;;;25.30;99.90;;;;;;12407908;28;20129;-40
2023/06/12 09:42:37;;;;;;;9.63;4.22;;;25.60;99.90;;;;;;12418999;28;20045;-39
2023/06/12 09:48:41;;;;;;;10.40;4.30;;;25.10;99.90;;;;;;12407526;28;20746;-39
2023/06/12 09:54:45;;;;;;;8.35;4.63;;;24.70;99.90;;;;;;12415150;28;20137;-39
2023/06/12 10:00:47;;;;;;;8.77;4.72;;;24.60;99.90;;;;;;12396938;28;20058;-39
2023/06/12 10:06:51;;;;;;;8.85;4.32;;;24.80;99.90;;;;;;12386968;28;20085;-40
2023/06/12 10:12:55;;;;;;;5.03;3.60;;;25.00;99.90;;;;;;12407479;28;20057;-39
2023/06/12 10:18:58;;;;;;;7.40;4.40;;;25.50;99.90;;;;;;12400359;28;20066;-39
2023/06/12 10:25:02;;;;;;;9.00;4.65;;;25.70;99.90;;;;;;12395459;28;20124;-40
2023/06/12 10:31:18;;;;;;;6.88;4.68;;;26.00;99.90;;;;;;12389833;28;20224;-40
2023/06/12 10:37:32;;;;;;;6.40;4.50;;;25.70;99.90;;;;;;12414322;28;20054;-39
2023/06/12 10:43:34;;;;;;;9.35;4.70;;;25.80;99.90;;;;;;12419917;28;20387;-39
2023/06/12 10:50:03;;;;;;;11.50;4.80;;;26.00;99.90;;;;;;12411009;28;20054;-39
2023/06/12 10:56:07;;;;;;;6.90;4.47;;;25.80;99.90;;;;;;12411417;28;20085;-39
2023/06/12 11:02:09;;;;;;;5.25;4.13;;;25.60;99.90;;;;;;12417071;28;20077;-40
2023/06/12 11:08:11;;;;;;;7.23;4.20;;;25.90;99.90;;;;;;12402499;28;20054;-40
2023/06/12 11:14:13;;;;;;;7.67;4.03;;;26.30;99.90;;;;;;12408087;28;20082;-39
2023/06/12 11:20:18;;;;;;;7.77;4.03;;;25.70;99.90;;;;;;12410429;28;20046;-39
2023/06/12 11:26:21;;;;;;;5.88;3.90;;;26.40;99.90;;;;;;12398227;28;20084;-40
2023/06/12 11:32:23;;;;;;;11.02;3.53;;;25.70;99.90;;;;;;12403449;28;20046;-40
2023/06/12 11:38:25;;;;;;;5.77;3.10;;;25.90;99.90;;;;;;12413449;28;20513;-38
2023/06/12 11:44:30;;;;;;;6.13;3.53;;;25.60;99.90;;;;;;12418607;28;20453;-40
2023/06/12 11:50:35;;;;;;;9.93;5.25;;;25.50;99.90;;;;;;12411525;28;20153;-40
2023/06/12 11:56:41;;;;;;;4.65;3.25;;;26.00;99.90;;;;;;12416758;28;20061;-39
2023/06/12 12:02:56;;;;;;;6.18;3.53;;;25.80;99.90;;;;;;12421943;28;20078;-41
2023/06/12 12:09:02;;;;;;;8.32;3.78;;;25.90;99.90;;;;;;12395148;28;20054;-40
2023/06/12 12:15:06;;;;;;;9.80;3.60;;;25.60;99.90;;;;;;12415053;28;20530;-39
2023/06/12 12:21:15;;;;;;;10.35;3.25;;;25.40;99.90;;;;;;12400766;28;20046;-40
2023/06/12 12:27:17;;;;;;;9.82;3.83;;;25.70;99.90;;;;;;12414274;28;20101;-39
2023/06/12 12:33:19;;;;;;;8.93;3.10;;;25.70;99.90;;;;;;12402318;28;20050;-39
2023/06/12 12:39:22;;;;;;;6.43;3.20;;;25.80;99.90;;;;;;12415232;28;20456;-40
2023/06/12 12:45:26;;;;;;;6.45;3.15;;;25.30;99.90;;;;;;12423318;28;20084;-40
2023/06/12 12:51:29;;;;;;;5.05;3.30;;;25.20;99.90;;;;;;12399286;28;20065;-39
2023/06/12 12:57:34;;;;;;;4.72;2.97;;;25.10;99.80;;;;;;12394529;28;20532;-40
2023/06/12 13:03:38;;;;;;;6.45;3.20;;;25.70;99.90;;;;;;12419306;28;20053;-39
2023/06/12 13:09:40;;;;;;;5.60;3.03;;;25.40;99.20;;;;;;12400446;28;20114;-39
2023/06/12 13:15:42;;;;;;;8.43;3.00;;;25.60;99.90;;;;;;12404513;28;20049;-39
2023/06/12 13:21:45;;;;;;;4.35;2.70;;;25.60;99.90;;;;;;12422949;28;20501;-39
2023/06/12 13:27:47;;;;;;;5.33;3.40;;;25.70;99.90;;;;;;12403234;28;20422;-40
2023/06/12 13:33:49;;;;;;;8.00;3.10;;;25.50;98.40;;;;;;12405111;28;20049;-40
2023/06/12 13:39:50;;;;;;;6.25;2.80;;;25.50;99.60;;;;;;12416828;28;20046;-40
2023/06/12 13:45:57;;;;;;;9.18;2.88;;;25.20;98.90;;;;;;12408893;28;20081;-39
2023/06/12 13:51:59;;;;;;;9.13;2.83;;;25.50;97.90;;;;;;12402600;28;20526;-39
2023/06/12 13:58:06;;;;;;;4.32;2.80;;;25.10;97.00;;;;;;12395162;28;20053;-41
2023/06/12 14:04:08;;;;;;;5.80;2.60;;;25.20;97.90;;;;;;12395589;28;20069;-39
2023/06/12 14:10:10;;;;;;;4.53;2.60;;;25.50;95.40;;;;;;12408251;28;20046;-39
2023/06/12 14:16:13;;;;;;;6.22;2.97;;;25.30;95.20;;;;;;12405869;28;20038;-40
2023/06/12 14:22:15;;;;;;;4.60;2.70;;;25.30;96.10;;;;;;12409130;28;20050;-39
2023/06/12 14:28:20;;;;;;;5.15;2.90;;;25.20;95.70;;;;;;12403984;28;20093;-39
2023/06/12 14:34:22;;;;;;;6.50;2.72;;;25.10;93.90;;;;;;12418616;28;20034;-40
2023/06/12 14:40:24;;;;;;;4.50;2.65;;;25.00;93.50;;;;;;12440789;28;20077;-39
2023/06/12 14:46:26;;;;;;;5.53;2.47;;;25.20;94.10;;;;;;12411189;28;20077;-40
2023/06/12 14:52:28;;;;;;;5.05;2.40;;;25.00;93.00;;;;;;12421147;28;20050;-39
2023/06/12 14:58:34;;;;;;;5.72;2.50;;;25.20;93.30;;;;;;12419296;28;20050;-40
2023/06/12 15:04:37;;;;;;;4.22;2.40;;;25.30;91.10;;;;;;12401020;28;20107;-41
2023/06/12 15:10:39;;;;;;;6.90;2.80;;;25.40;91.90;;;;;;12418015;28;20081;-40
2023/06/12 15:16:41;;;;;;;6.50;2.83;;;25.60;88.60;;;;;;12423257;28;20285;-41
2023/06/12 15:22:43;;;;;;;4.10;2.60;;;25.60;89.40;;;;;;12435031;28;20471;-39
2023/06/12 15:28:45;;;;;;;8.38;3.20;;;25.20;79.30;;;;;;12409968;28;20057;-41
2023/06/12 15:34:47;;;;;;;8.90;2.60;;;25.40;81.30;;;;;;12398705;28;20422;-41
2023/06/12 15:40:49;;;;;;;5.63;2.80;;;25.40;77.00;;;;;;12408548;28;20422;-40
2023/06/12 15:46:52;;;;;;;8.02;2.65;;;25.10;66.60;;;;;;12420570;28;20049;-40
2023/06/12 15:52:54;;;;;;;6.73;2.57;;;25.10;71.60;;;;;;12402920;28;20418;-40
2023/06/12 15:58:56;;;;;;;5.73;2.77;;;25.00;74.30;;;;;;12405609;28;20054;-40
2023/06/12 16:04:58;;;;;;;5.75;2.72;;;25.20;69.80;;;;;;12408062;28;20133;-39
2023/06/12 16:11:01;;;;;;;8.38;2.80;;;25.30;74.80;;;;;;12408059;28;20061;-39
2023/06/12 16:17:03;;;;;;;5.05;3.15;;;25.50;80.70;;;;;;12409004;28;20065;-39
2023/06/12 16:23:05;;;;;;;5.75;2.95;;;25.30;81.30;;;;;;12411144;28;20041;-39
2023/06/12 16:29:07;;;;;;;4.73;2.90;;;25.20;81.90;;;;;;12399560;28;20053;-39
2023/06/12 16:35:09;;;;;;;7.15;3.00;;;25.00;83.60;;;;;;12412003;28;20050;-39
2023/06/12 16:41:11;;;;;;;4.40;2.87;;;25.00;86.30;;;;;;12398142;28;20062;-38
2023/06/12 16:47:13;;;;;;;7.57;3.30;;;24.90;86.30;;;;;;12401297;28;20046;-39
2023/06/12 16:53:15;;;;;;;5.38;2.85;;;24.90;86.30;;;;;;12405580;28;20419;-41
2023/06/12 16:59:17;;;;;;;5.60;3.10;;;24.80;89.50;;;;;;12402031;28;20054;-39
2023/06/12 17:05:19;;;;;;;6.15;3.08;;;24.70;86.50;;;;;;12399429;28;20081;-38
2023/06/12 17:11:22;;;;;;;7.47;3.00;;;24.80;86.70;;;;;;12419791;28;20048;-39
2023/06/12 17:17:25;;;;;;;6.28;3.17;;;24.70;90.40;;;;;;12398179;28;20414;-38
2023/06/12 17:23:27;;;;;;;;;;;24.80;89.30;;;;;;12401896;28;20038;-40
2023/06/12 17:29:29;;;;;;;7.10;3.15;;;24.80;91.50;;;;;;12401448;28;20014;-38
2023/06/12 17:35:32;;;;;;;5.68;3.10;;;24.60;90.10;;;;;;12392641;28;20432;-39
2023/06/12 17:41:36;;;;;;;;;;;24.60;91.30;;;;;;12406693;28;20050;-40
2023/06/12 17:47:38;;;;;;;5.35;2.80;;;24.60;92.20;;;;;;12396249;28;19925;-39
2023/06/12 17:53:41;;;;;;;5.20;3.00;;;24.50;93.20;;;;;;12414033;28;20081;-39
2023/06/12 17:59:43;;;;;;;6.93;3.40;;;24.70;93.20;;;;;;12426520;28;20067;-38
2023/06/12 18:05:45;;;;;;;6.97;3.58;;;24.50;93.30;;;;;;12408827;28;20047;-40
2023/06/12 18:11:47;;;;;;;4.75;2.90;;;24.80;93.60;;;;;;12410962;28;20057;-39
2023/06/12 18:17:49;;;;;;;5.85;3.20;;;24.30;92.60;;;;;;12407097;28;20102;-38
2023/06/12 18:23:53;;;;;;;6.45;3.17;;;24.00;92.40;;;;;;12417008;28;20046;-37
2023/06/12 18:29:54;;;;;;;;;;;23.70;92.80;;;;;;12411302;28;20062;-38
2023/06/12 18:35:56;;;;;;;8.52;3.50;;;23.50;93.20;;;;;;12408827;28;19925;-38
2023/06/12 18:41:58;;;;;;;4.78;3.03;;;23.40;93.40;;;;;;12406318;28;20050;-38
2023/06/12 18:48:01;;;;;;;5.55;3.28;;;23.30;92.60;;;;;;12417325;28;20038;-38
2023/06/12 18:54:04;;;;;;;5.70;3.30;;;23.20;93.30;;;;;;12418448;28;20038;-37
2023/06/12 19:00:06;;;;;;;6.80;3.28;;;23.10;93.20;;;;;;12416234;28;20046;-39
2023/06/12 19:06:08;;;;;;;5.07;3.33;;;22.90;93.60;;;;;;12408061;28;20054;-39
2023/06/12 19:12:10;;;;;;;11.18;3.15;;;22.80;93.60;;;;;;12422413;28;20046;-40
2023/06/12 19:18:12;;;;;;;5.15;3.17;;;22.70;93.70;;;;;;12412981;28;20057;-39
2023/06/12 19:24:14;;;;;;;8.02;3.60;;;22.60;94.40;;;;;;12404769;28;20046;-39
2023/06/12 19:30:16;;;;;;;5.50;3.25;;;22.60;94.40;;;;;;12402638;28;20108;-40
2023/06/12 19:36:18;;;;;;;9.17;3.43;;;22.50;94.60;;;;;;12430698;28;20045;-39
2023/06/12 19:42:20;;;;;;;6.18;3.00;;;22.50;94.80;;;;;;12411142;28;20062;-38
2023/06/12 19:48:22;;;;;;;8.93;3.70;;;22.30;94.90;;;;;;12407679;28;20157;-39
2023/06/12 19:54:25;;;;;;;6.22;3.10;;;22.30;95.80;;;;;;12408681;28;20042;-39
2023/06/12 20:00:27;;;;;;;12.40;3.33;;;22.20;96.50;;;;;;12414785;28;20414;-39
2023/06/12 20:06:29;;;;;;;5.60;3.30;;;22.00;97.30;;;;;;12401569;28;20517;-39
2023/06/12 20:12:31;;;;;;;8.05;2.83;;;21.90;98.70;;;;;;12403843;28;20061;-40
2023/06/12 20:18:33;;;;;;;8.48;3.30;;;21.70;99.40;;;;;;12415842;28;20509;-40
2023/06/12 20:24:36;;;;;;;5.45;3.30;;;21.90;99.90;;;;;;12395167;28;20045;-38
2023/06/12 20:30:39;;;;;;;6.18;3.10;;;21.90;99.90;;;;;;12391920;28;20050;-39
2023/06/12 20:36:41;;;;;;;7.85;3.53;;;21.80;99.90;;;;;;12405741;28;20077;-39
2023/06/12 20:42:42;;;;;;;6.32;3.30;;;21.60;99.90;;;;;;12398015;28;20049;-39
2023/06/12 20:48:44;;;;;;;7.63;3.30;;;21.50;99.90;;;;;;12407645;28;20092;-39
2023/06/12 20:54:46;;;;;;;9.70;3.50;;;21.50;99.90;;;;;;12411857;28;20050;-39
2023/06/12 21:00:48;;;;;;;4.47;3.05;;;21.20;99.90;;;;;;12401191;28;20517;-39
2023/06/12 21:06:53;;;;;;;6.22;3.17;;;21.10;99.90;;;;;;12402410;28;20057;-39
2023/06/12 21:12:54;;;;;;;4.72;3.08;;;20.90;99.90;;;;;;12396184;28;20058;-40
2023/06/12 21:18:56;;;;;;;7.18;2.80;;;20.80;99.90;;;;;;12395683;28;20054;-39
2023/06/12 21:24:58;;;;;;;6.40;3.00;;;20.70;99.90;;;;;;12412034;28;20041;-39
2023/06/12 21:31:00;;;;;;;6.57;3.45;;;20.70;99.90;;;;;;12409881;28;20086;-39
2023/06/12 21:37:02;;;;;;;7.07;3.63;;;20.60;99.90;;;;;;12424466;28;20053;-39
2023/06/12 21:43:24;;;;;;;5.88;3.15;;;20.60;99.90;;;;;;12418059;28;20253;-38
2023/06/12 21:49:26;;;;;;;5.60;3.20;;;20.50;99.90;;;;;;12416178;28;20415;-38
2023/06/12 21:55:28;;;;;;;7.25;3.30;;;20.30;99.90;;;;;;12410414;28;20058;-39
2023/06/12 22:01:30;;;;;;;8.70;3.38;;;20.20;99.90;;;;;;12415650;28;20498;-38
2023/06/12 22:07:32;;;;;;;10.10;3.58;;;20.10;99.90;;;;;;12408139;28;20490;-39
2023/06/12 22:13:34;;;;;;;8.20;3.40;;;20.00;99.90;;;;;;12399957;28;20066;-39
2023/06/12 22:19:35;;;;;;;5.50;3.40;;;19.90;99.90;;;;;;12406212;28;20074;-41
2023/06/12 22:25:37;;;;;;;5.82;3.10;;;19.80;99.90;;;;;;12412389;28;20053;-39
2023/06/12 22:31:41;;;;;;;4.82;3.20;;;19.60;99.90;;;;;;12401380;28;20064;-39
2023/06/12 22:37:43;;;;;;;8.27;3.38;;;19.30;99.90;;;;;;12406093;28;20430;-38
2023/06/12 22:43:46;;;;;;;7.57;3.28;;;19.10;99.90;;;;;;12407767;28;20066;-39
2023/06/12 22:49:48;;;;;;;8.45;3.15;;;18.90;99.90;;;;;;12411102;28;20511;-38
2023/06/12 22:55:50;;;;;;;5.50;3.50;;;19.00;99.90;;;;;;12411338;28;20046;-38
2023/06/12 23:01:51;;;;;;;6.95;3.40;;;19.00;99.90;;;;;;12408069;28;20097;-39
2023/06/12 23:07:53;;;;;;;6.00;3.10;;;19.00;99.90;;;;;;12405459;28;20426;-38
2023/06/12 23:13:55;;;;;;;6.40;3.80;;;19.00;99.90;;;;;;12411466;28;20133;-38
2023/06/12 23:20:01;;;;;;;4.35;3.20;;;18.90;99.90;;;;;;12403371;28;20046;-38
2023/06/12 23:26:03;;;;;;;5.10;3.60;;;18.70;99.90;;;;;;12402056;28;20107;-38
2023/06/12 23:32:05;;;;;;;6.90;3.38;;;18.40;99.90;;;;;;12398636;28;20053;-38
2023/06/12 23:38:07;;;;;;;7.65;3.55;;;18.00;99.90;;;;;;12407325;28;20057;-38
2023/06/12 23:44:09;;;;;;;7.22;3.70;;;17.80;99.90;;;;;;12405933;28;20141;-38
2023/06/12 23:50:12;;;;;;;5.75;3.35;;;17.80;99.90;;;;;;12402254;28;20050;-38
2023/06/12 23:56:15;;;;;;;8.63;3.53;;;17.90;99.90;;;;;;12405178;28;20440;-38
